sensor_id;sensor_type;location;lat;lon;timestamp;P1;durP1;ratioP1;P2;durP2;ratioP2
5937;SDS011;2994;51.220;4.412;2022-11-09T13:45:34;3.00;;;1.67;;
5937;SDS011;2994;51.220;4.412;2022-11-09T13:48:30;5.40;;;1.77;;
5937;SDS011;2994;51.220;4.412;2022-11-09T13:51:03;5.13;;;1.87;;
5937;SDS011;2994;51.220;4.412;2022-11-09T13:56:24;3.53;;;1.10;;
5937;SDS011;2994;51.220;4.412;2022-11-09T13:58:53;5.23;;;1.53;;
5937;SDS011;2994;51.220;4.412;2022-11-09T14:04:25;4.53;;;2.00;;
5937;SDS011;2994;51.220;4.412;2022-11-09T14:07:21;2.80;;;1.90;;
5937;SDS011;2994;51.220;4.412;2022-11-09T14:10:00;8.83;;;2.17;;
5937;SDS011;2994;51.220;4.412;2022-11-09T14:12:40;7.03;;;1.80;;
5937;SDS011;2994;51.220;4.412;2022-11-09T14:23:14;6.73;;;2.30;;
5937;SDS011;2994;51.220;4.412;2022-11-09T14:25:41;4.40;;;1.83;;
5937;SDS011;2994;51.220;4.412;2022-11-09T14:28:18;6.40;;;2.00;;
5937;SDS011;2994;51.220;4.412;2022-11-09T14:30:51;4.10;;;2.43;;
5937;SDS011;2994;51.220;4.412;2022-11-09T14:35:45;5.57;;;2.00;;
5937;SDS011;2994;51.220;4.412;2022-11-09T14:40:58;6.17;;;2.10;;
5937;SDS011;2994;51.220;4.412;2022-11-09T14:43:35;3.20;;;1.70;;
5937;SDS011;2994;51.220;4.412;2022-11-09T14:46:05;6.43;;;1.53;;
5937;SDS011;2994;51.220;4.412;2022-11-09T14:48:38;6.50;;;1.87;;
5937;SDS011;2994;51.220;4.412;2022-11-09T14:51:04;4.50;;;1.70;;
5937;SDS011;2994;51.220;4.412;2022-11-09T14:53:35;4.97;;;1.63;;
5937;SDS011;2994;51.220;4.412;2022-11-09T14:56:03;5.27;;;1.90;;
5937;SDS011;2994;51.220;4.412;2022-11-09T14:58:30;2.80;;;1.80;;
5937;SDS011;2994;51.220;4.412;2022-11-09T15:01:06;4.50;;;1.67;;
5937;SDS011;2994;51.220;4.412;2022-11-09T15:03:41;3.30;;;1.50;;
5937;SDS011;2994;51.220;4.412;2022-11-09T15:06:10;2.93;;;1.43;;
5937;SDS011;2994;51.220;4.412;2022-11-09T15:08:52;6.40;;;2.00;;
5937;SDS011;2994;51.220;4.412;2022-11-09T15:11:20;5.53;;;3.20;;
5937;SDS011;2994;51.220;4.412;2022-11-09T15:13:55;3.27;;;2.27;;
5937;SDS011;2994;51.220;4.412;2022-11-09T15:16:22;4.03;;;2.10;;
5937;SDS011;2994;51.220;4.412;2022-11-09T15:18:51;8.27;;;3.80;;
5937;SDS011;2994;51.220;4.412;2022-11-09T15:23:45;5.00;;;1.90;;
5937;SDS011;2994;51.220;4.412;2022-11-09T15:26:26;6.87;;;2.20;;
5937;SDS011;2994;51.220;4.412;2022-11-09T15:29:01;3.57;;;2.13;;
5937;SDS011;2994;51.220;4.412;2022-11-09T15:32:00;5.53;;;2.67;;
5937;SDS011;2994;51.220;4.412;2022-11-09T15:34:39;4.30;;;1.50;;
5937;SDS011;2994;51.220;4.412;2022-11-09T15:39:46;3.40;;;1.30;;
5937;SDS011;2994;51.220;4.412;2022-11-09T15:42:12;3.57;;;1.77;;
5937;SDS011;2994;51.220;4.412;2022-11-09T15:44:38;4.67;;;2.23;;
5937;SDS011;2994;51.220;4.412;2022-11-09T15:47:03;4.53;;;2.20;;
5937;SDS011;2994;51.220;4.412;2022-11-09T15:49:45;5.07;;;1.60;;
5937;SDS011;2994;51.220;4.412;2022-11-09T15:52:10;3.83;;;2.23;;
5937;SDS011;2994;51.220;4.412;2022-11-09T15:54:36;3.00;;;1.40;;
5937;SDS011;2994;51.220;4.412;2022-11-09T15:57:01;2.90;;;1.67;;
5937;SDS011;2994;51.220;4.412;2022-11-09T15:59:27;5.57;;;2.07;;
5937;SDS011;2994;51.220;4.412;2022-11-09T16:01:52;3.87;;;1.50;;
5937;SDS011;2994;51.220;4.412;2022-11-09T16:04:18;4.10;;;2.60;;
5937;SDS011;2994;51.220;4.412;2022-11-09T16:06:43;6.23;;;2.60;;
5937;SDS011;2994;51.220;4.412;2022-11-09T16:09:09;5.03;;;1.90;;
5937;SDS011;2994;51.220;4.412;2022-11-09T16:11:34;3.70;;;2.27;;
5937;SDS011;2994;51.220;4.412;2022-11-09T16:16:35;6.50;;;2.07;;
5937;SDS011;2994;51.220;4.412;2022-11-09T16:19:00;3.63;;;1.13;;
5937;SDS011;2994;51.220;4.412;2022-11-09T16:21:26;3.50;;;1.37;;
5937;SDS011;2994;51.220;4.412;2022-11-09T16:23:51;3.43;;;1.80;;
5937;SDS011;2994;51.220;4.412;2022-11-09T16:26:18;7.20;;;2.47;;
5937;SDS011;2994;51.220;4.412;2022-11-09T16:28:44;2.17;;;1.43;;
5937;SDS011;2994;51.220;4.412;2022-11-09T16:31:10;3.17;;;1.60;;
5937;SDS011;2994;51.220;4.412;2022-11-09T16:33:36;8.77;;;2.70;;
5937;SDS011;2994;51.220;4.412;2022-11-09T16:36:04;4.80;;;1.77;;
5937;SDS011;2994;51.220;4.412;2022-11-09T16:38:34;4.50;;;1.73;;
5937;SDS011;2994;51.220;4.412;2022-11-09T16:41:02;3.90;;;2.40;;
5937;SDS011;2994;51.220;4.412;2022-11-09T16:43:28;6.33;;;2.10;;
5937;SDS011;2994;51.220;4.412;2022-11-09T16:45:55;4.03;;;1.57;;
5937;SDS011;2994;51.220;4.412;2022-11-09T16:48:21;6.40;;;1.83;;
5937;SDS011;2994;51.220;4.412;2022-11-09T16:50:46;5.87;;;2.30;;
5937;SDS011;2994;51.220;4.412;2022-11-09T16:53:12;5.07;;;1.70;;
5937;SDS011;2994;51.220;4.412;2022-11-09T16:55:38;5.40;;;2.30;;
5937;SDS011;2994;51.220;4.412;2022-11-09T16:58:04;6.40;;;2.00;;
5937;SDS011;2994;51.220;4.412;2022-11-09T17:00:32;5.40;;;2.13;;
5937;SDS011;2994;51.220;4.412;2022-11-09T17:03:01;3.93;;;1.80;;
5937;SDS011;2994;51.220;4.412;2022-11-09T17:05:28;8.80;;;2.90;;
5937;SDS011;2994;51.220;4.412;2022-11-09T17:07:55;4.80;;;2.30;;
5937;SDS011;2994;51.220;4.412;2022-11-09T17:10:21;5.93;;;2.77;;
5937;SDS011;2994;51.220;4.412;2022-11-09T17:12:46;8.40;;;2.60;;
5937;SDS011;2994;51.220;4.412;2022-11-09T17:15:11;5.83;;;2.10;;
5937;SDS011;2994;51.220;4.412;2022-11-09T17:17:37;4.87;;;2.83;;
5937;SDS011;2994;51.220;4.412;2022-11-09T17:20:03;5.43;;;2.40;;
5937;SDS011;2994;51.220;4.412;2022-11-09T17:22:30;6.93;;;2.40;;
5937;SDS011;2994;51.220;4.412;2022-11-09T17:24:56;10.17;;;3.53;;
5937;SDS011;2994;51.220;4.412;2022-11-09T17:27:22;5.90;;;2.90;;
5937;SDS011;2994;51.220;4.412;2022-11-09T17:29:47;6.73;;;3.50;;
5937;SDS011;2994;51.220;4.412;2022-11-09T17:32:13;6.60;;;3.60;;
5937;SDS011;2994;51.220;4.412;2022-11-09T17:34:38;8.93;;;3.03;;
5937;SDS011;2994;51.220;4.412;2022-11-09T17:37:04;5.53;;;3.13;;
5937;SDS011;2994;51.220;4.412;2022-11-09T17:39:29;6.10;;;2.83;;
5937;SDS011;2994;51.220;4.412;2022-11-09T17:41:54;6.17;;;2.70;;
5937;SDS011;2994;51.220;4.412;2022-11-09T17:44:20;9.00;;;3.47;;
5937;SDS011;2994;51.220;4.412;2022-11-09T17:46:45;11.67;;;3.10;;
5937;SDS011;2994;51.220;4.412;2022-11-09T17:49:11;4.67;;;2.97;;
5937;SDS011;2994;51.220;4.412;2022-11-09T17:51:36;8.63;;;3.20;;
5937;SDS011;2994;51.220;4.412;2022-11-09T17:54:02;8.07;;;2.47;;
5937;SDS011;2994;51.220;4.412;2022-11-09T17:56:29;5.87;;;3.10;;
5937;SDS011;2994;51.220;4.412;2022-11-09T17:58:55;3.87;;;2.87;;
5937;SDS011;2994;51.220;4.412;2022-11-09T18:01:21;7.80;;;3.80;;
5937;SDS011;2994;51.220;4.412;2022-11-09T18:03:47;8.83;;;4.20;;
5937;SDS011;2994;51.220;4.412;2022-11-09T18:06:14;5.60;;;3.67;;
5937;SDS011;2994;51.220;4.412;2022-11-09T18:08:44;5.50;;;3.73;;
5937;SDS011;2994;51.220;4.412;2022-11-09T18:11:13;6.43;;;3.03;;
5937;SDS011;2994;51.220;4.412;2022-11-09T18:13:43;4.73;;;3.00;;
5937;SDS011;2994;51.220;4.412;2022-11-09T18:16:12;3.90;;;2.90;;
5937;SDS011;2994;51.220;4.412;2022-11-09T18:18:42;5.53;;;3.20;;
5937;SDS011;2994;51.220;4.412;2022-11-09T18:21:11;7.00;;;2.90;;
5937;SDS011;2994;51.220;4.412;2022-11-09T18:23:39;4.60;;;2.83;;
5937;SDS011;2994;51.220;4.412;2022-11-09T18:26:06;4.50;;;2.50;;
5937;SDS011;2994;51.220;4.412;2022-11-09T18:28:40;5.70;;;2.77;;
5937;SDS011;2994;51.220;4.412;2022-11-09T18:31:08;5.17;;;2.53;;
5937;SDS011;2994;51.220;4.412;2022-11-09T18:33:35;6.50;;;3.07;;
5937;SDS011;2994;51.220;4.412;2022-11-09T18:36:09;7.90;;;3.87;;
5937;SDS011;2994;51.220;4.412;2022-11-09T18:38:38;5.80;;;3.50;;
5937;SDS011;2994;51.220;4.412;2022-11-09T18:41:22;5.93;;;3.40;;
5937;SDS011;2994;51.220;4.412;2022-11-09T18:43:49;7.30;;;4.10;;
5937;SDS011;2994;51.220;4.412;2022-11-09T18:46:16;4.27;;;2.80;;
5937;SDS011;2994;51.220;4.412;2022-11-09T18:48:43;9.60;;;3.80;;
5937;SDS011;2994;51.220;4.412;2022-11-09T18:51:09;5.87;;;3.23;;
5937;SDS011;2994;51.220;4.412;2022-11-09T18:53:36;7.03;;;3.57;;
5937;SDS011;2994;51.220;4.412;2022-11-09T18:56:04;8.67;;;3.50;;
5937;SDS011;2994;51.220;4.412;2022-11-09T18:58:32;8.40;;;3.40;;
5937;SDS011;2994;51.220;4.412;2022-11-09T19:00:59;8.33;;;3.67;;
5937;SDS011;2994;51.220;4.412;2022-11-09T19:03:25;7.60;;;3.50;;
5937;SDS011;2994;51.220;4.412;2022-11-09T19:05:51;4.37;;;2.77;;
5937;SDS011;2994;51.220;4.412;2022-11-09T19:08:17;11.27;;;3.63;;
5937;SDS011;2994;51.220;4.412;2022-11-09T19:11:03;8.37;;;3.80;;
5937;SDS011;2994;51.220;4.412;2022-11-09T19:13:30;8.13;;;3.33;;
5937;SDS011;2994;51.220;4.412;2022-11-09T19:15:55;5.20;;;3.40;;
5937;SDS011;2994;51.220;4.412;2022-11-09T19:18:21;4.53;;;2.67;;
5937;SDS011;2994;51.220;4.412;2022-11-09T19:20:46;7.67;;;3.33;;
5937;SDS011;2994;51.220;4.412;2022-11-09T19:23:12;11.23;;;3.83;;
5937;SDS011;2994;51.220;4.412;2022-11-09T19:25:37;9.90;;;4.27;;
5937;SDS011;2994;51.220;4.412;2022-11-09T19:28:02;5.93;;;3.47;;
5937;SDS011;2994;51.220;4.412;2022-11-09T19:30:31;9.57;;;3.57;;
5937;SDS011;2994;51.220;4.412;2022-11-09T19:32:56;5.47;;;3.30;;
5937;SDS011;2994;51.220;4.412;2022-11-09T19:35:23;5.90;;;3.60;;
5937;SDS011;2994;51.220;4.412;2022-11-09T19:37:48;11.80;;;3.60;;
5937;SDS011;2994;51.220;4.412;2022-11-09T19:40:14;6.57;;;3.60;;
5937;SDS011;2994;51.220;4.412;2022-11-09T19:42:39;4.03;;;3.10;;
5937;SDS011;2994;51.220;4.412;2022-11-09T19:45:05;5.37;;;2.90;;
5937;SDS011;2994;51.220;4.412;2022-11-09T19:47:33;4.93;;;2.33;;
5937;SDS011;2994;51.220;4.412;2022-11-09T19:49:58;5.43;;;2.40;;
5937;SDS011;2994;51.220;4.412;2022-11-09T19:52:24;10.20;;;4.00;;
5937;SDS011;2994;51.220;4.412;2022-11-09T19:54:49;3.73;;;2.87;;
5937;SDS011;2994;51.220;4.412;2022-11-09T19:57:15;6.33;;;3.43;;
5937;SDS011;2994;51.220;4.412;2022-11-09T19:59:40;5.33;;;3.67;;
5937;SDS011;2994;51.220;4.412;2022-11-09T20:02:07;7.90;;;3.70;;
5937;SDS011;2994;51.220;4.412;2022-11-09T20:04:33;8.20;;;3.10;;
5937;SDS011;2994;51.220;4.412;2022-11-09T20:06:59;7.33;;;3.60;;
5937;SDS011;2994;51.220;4.412;2022-11-09T20:09:30;8.03;;;3.50;;
5937;SDS011;2994;51.220;4.412;2022-11-09T20:11:56;6.70;;;3.30;;
5937;SDS011;2994;51.220;4.412;2022-11-09T20:14:41;6.03;;;3.30;;
5937;SDS011;2994;51.220;4.412;2022-11-09T20:17:06;6.20;;;4.33;;
5937;SDS011;2994;51.220;4.412;2022-11-09T20:19:32;7.67;;;3.80;;
5937;SDS011;2994;51.220;4.412;2022-11-09T20:21:58;4.40;;;3.40;;
5937;SDS011;2994;51.220;4.412;2022-11-09T20:24:23;4.33;;;3.20;;
5937;SDS011;2994;51.220;4.412;2022-11-09T20:26:49;7.57;;;3.03;;
5937;SDS011;2994;51.220;4.412;2022-11-09T20:29:14;8.80;;;4.00;;
5937;SDS011;2994;51.220;4.412;2022-11-09T20:31:40;4.30;;;3.10;;
5937;SDS011;2994;51.220;4.412;2022-11-09T20:34:06;7.07;;;3.00;;
5937;SDS011;2994;51.220;4.412;2022-11-09T20:36:32;5.70;;;3.33;;
5937;SDS011;2994;51.220;4.412;2022-11-09T20:38:58;11.13;;;3.40;;
5937;SDS011;2994;51.220;4.412;2022-11-09T20:41:24;7.33;;;3.00;;
5937;SDS011;2994;51.220;4.412;2022-11-09T20:43:49;7.27;;;3.07;;
5937;SDS011;2994;51.220;4.412;2022-11-09T20:46:16;5.50;;;2.93;;
5937;SDS011;2994;51.220;4.412;2022-11-09T20:48:43;8.33;;;3.20;;
5937;SDS011;2994;51.220;4.412;2022-11-09T20:51:10;5.03;;;2.90;;
5937;SDS011;2994;51.220;4.412;2022-11-09T20:53:37;5.40;;;3.40;;
5937;SDS011;2994;51.220;4.412;2022-11-09T20:56:03;4.50;;;3.47;;
5937;SDS011;2994;51.220;4.412;2022-11-09T20:58:29;6.33;;;3.90;;
5937;SDS011;2994;51.220;4.412;2022-11-09T21:01:13;8.23;;;3.50;;
5937;SDS011;2994;51.220;4.412;2022-11-09T21:03:43;6.00;;;3.10;;
5937;SDS011;2994;51.220;4.412;2022-11-09T21:06:10;11.33;;;3.30;;
5937;SDS011;2994;51.220;4.412;2022-11-09T21:08:36;11.23;;;4.00;;
5937;SDS011;2994;51.220;4.412;2022-11-09T21:11:08;4.90;;;3.00;;
5937;SDS011;2994;51.220;4.412;2022-11-09T21:13:40;6.67;;;3.90;;
5937;SDS011;2994;51.220;4.412;2022-11-09T21:16:08;10.20;;;3.57;;
5937;SDS011;2994;51.220;4.412;2022-11-09T21:18:34;6.00;;;3.63;;
5937;SDS011;2994;51.220;4.412;2022-11-09T21:21:07;6.90;;;3.50;;
5937;SDS011;2994;51.220;4.412;2022-11-09T21:23:35;5.83;;;3.13;;
5937;SDS011;2994;51.220;4.412;2022-11-09T21:26:19;6.83;;;3.40;;
5937;SDS011;2994;51.220;4.412;2022-11-09T21:29:03;6.23;;;3.27;;
5937;SDS011;2994;51.220;4.412;2022-11-09T21:31:48;6.53;;;2.90;;
5937;SDS011;2994;51.220;4.412;2022-11-09T21:34:13;6.03;;;2.93;;
5937;SDS011;2994;51.220;4.412;2022-11-09T21:36:40;6.97;;;3.10;;
5937;SDS011;2994;51.220;4.412;2022-11-09T21:39:07;7.33;;;2.80;;
5937;SDS011;2994;51.220;4.412;2022-11-09T21:41:38;4.90;;;3.30;;
5937;SDS011;2994;51.220;4.412;2022-11-09T21:44:04;5.93;;;3.30;;
5937;SDS011;2994;51.220;4.412;2022-11-09T21:46:32;4.70;;;2.87;;
5937;SDS011;2994;51.220;4.412;2022-11-09T21:48:58;9.93;;;3.37;;
5937;SDS011;2994;51.220;4.412;2022-11-09T21:51:27;9.20;;;3.30;;
5937;SDS011;2994;51.220;4.412;2022-11-09T21:53:52;8.53;;;3.10;;
5937;SDS011;2994;51.220;4.412;2022-11-09T21:56:18;6.83;;;3.37;;
5937;SDS011;2994;51.220;4.412;2022-11-09T21:58:47;5.97;;;2.67;;
5937;SDS011;2994;51.220;4.412;2022-11-09T22:01:13;9.50;;;3.30;;
5937;SDS011;2994;51.220;4.412;2022-11-09T22:03:40;9.10;;;3.13;;
5937;SDS011;2994;51.220;4.412;2022-11-09T22:06:06;4.73;;;3.23;;
5937;SDS011;2994;51.220;4.412;2022-11-09T22:08:32;7.37;;;3.43;;
5937;SDS011;2994;51.220;4.412;2022-11-09T22:13:34;11.60;;;3.60;;
5937;SDS011;2994;51.220;4.412;2022-11-09T22:16:18;5.93;;;2.67;;
5937;SDS011;2994;51.220;4.412;2022-11-09T22:18:45;10.13;;;4.17;;
5937;SDS011;2994;51.220;4.412;2022-11-09T22:21:29;9.50;;;3.40;;
5937;SDS011;2994;51.220;4.412;2022-11-09T22:23:55;6.93;;;2.87;;
5937;SDS011;2994;51.220;4.412;2022-11-09T22:26:21;7.07;;;2.90;;
5937;SDS011;2994;51.220;4.412;2022-11-09T22:28:47;8.60;;;4.33;;
5937;SDS011;2994;51.220;4.412;2022-11-09T22:31:12;5.83;;;2.83;;
5937;SDS011;2994;51.220;4.412;2022-11-09T22:33:37;6.03;;;2.57;;
5937;SDS011;2994;51.220;4.412;2022-11-09T22:36:04;10.03;;;3.10;;
5937;SDS011;2994;51.220;4.412;2022-11-09T22:38:31;5.93;;;3.40;;
5937;SDS011;2994;51.220;4.412;2022-11-09T22:41:04;9.40;;;2.73;;
5937;SDS011;2994;51.220;4.412;2022-11-09T22:43:31;6.70;;;3.23;;
5937;SDS011;2994;51.220;4.412;2022-11-09T22:46:09;7.50;;;3.03;;
5937;SDS011;2994;51.220;4.412;2022-11-09T22:48:40;8.90;;;3.80;;
5937;SDS011;2994;51.220;4.412;2022-11-09T22:51:06;7.27;;;4.00;;
5937;SDS011;2994;51.220;4.412;2022-11-09T22:53:32;4.73;;;3.07;;
5937;SDS011;2994;51.220;4.412;2022-11-09T22:55:59;5.43;;;3.13;;
5937;SDS011;2994;51.220;4.412;2022-11-09T22:58:26;8.90;;;2.80;;
5937;SDS011;2994;51.220;4.412;2022-11-09T23:00:52;8.03;;;3.10;;
5937;SDS011;2994;51.220;4.412;2022-11-09T23:03:18;10.47;;;3.50;;
5937;SDS011;2994;51.220;4.412;2022-11-09T23:05:44;5.40;;;3.47;;
5937;SDS011;2994;51.220;4.412;2022-11-09T23:08:10;4.20;;;2.80;;
5937;SDS011;2994;51.220;4.412;2022-11-09T23:10:36;6.83;;;3.43;;
5937;SDS011;2994;51.220;4.412;2022-11-09T23:13:02;7.70;;;3.20;;
5937;SDS011;2994;51.220;4.412;2022-11-09T23:15:28;9.97;;;3.40;;
5937;SDS011;2994;51.220;4.412;2022-11-09T23:17:55;7.53;;;3.47;;
5937;SDS011;2994;51.220;4.412;2022-11-09T23:20:40;7.77;;;3.10;;
5937;SDS011;2994;51.220;4.412;2022-11-09T23:23:06;5.63;;;2.90;;
5937;SDS011;2994;51.220;4.412;2022-11-09T23:25:32;6.90;;;3.50;;
5937;SDS011;2994;51.220;4.412;2022-11-09T23:28:16;5.73;;;3.30;;
5937;SDS011;2994;51.220;4.412;2022-11-09T23:30:42;8.17;;;3.00;;
5937;SDS011;2994;51.220;4.412;2022-11-09T23:33:08;6.57;;;3.53;;
5937;SDS011;2994;51.220;4.412;2022-11-09T23:35:34;6.40;;;4.10;;
5937;SDS011;2994;51.220;4.412;2022-11-09T23:38:03;9.03;;;3.83;;
5937;SDS011;2994;51.220;4.412;2022-11-09T23:40:30;7.97;;;3.70;;
5937;SDS011;2994;51.220;4.412;2022-11-09T23:43:08;5.30;;;3.20;;
5937;SDS011;2994;51.220;4.412;2022-11-09T23:45:35;9.90;;;4.50;;
5937;SDS011;2994;51.220;4.412;2022-11-09T23:48:02;7.13;;;3.40;;
5937;SDS011;2994;51.220;4.412;2022-11-09T23:50:28;9.27;;;4.03;;
5937;SDS011;2994;51.220;4.412;2022-11-09T23:52:55;6.17;;;3.40;;
5937;SDS011;2994;51.220;4.412;2022-11-09T23:55:22;5.87;;;3.10;;
5937;SDS011;2994;51.220;4.412;2022-11-09T23:57:48;7.93;;;4.10;;
